sensor_id;sensor_type;location;lat;lon;timestamp;P1;durP1;ratioP1;P2;durP2;ratioP2
18610;SDS011;9435;52.122;5.502;2023-05-07T00:01:39;14.68;;;9.35;;
18610;SDS011;9435;52.122;5.502;2023-05-07T00:04:07;12.82;;;9.55;;
18610;SDS011;9435;52.122;5.502;2023-05-07T00:06:34;12.68;;;9.55;;
18610;SDS011;9435;52.122;5.502;2023-05-07T00:09:01;11.35;;;8.75;;
18610;SDS011;9435;52.122;5.502;2023-05-07T00:11:29;12.48;;;8.80;;
18610;SDS011;9435;52.122;5.502;2023-05-07T00:13:56;11.98;;;8.60;;
18610;SDS011;9435;52.122;5.502;2023-05-07T00:16:23;13.20;;;8.98;;
18610;SDS011;9435;52.122;5.502;2023-05-07T00:18:50;13.32;;;9.32;;
18610;SDS011;9435;52.122;5.502;2023-05-07T00:21:19;13.82;;;9.25;;
18610;SDS011;9435;52.122;5.502;2023-05-07T00:23:47;16.13;;;9.50;;
18610;SDS011;9435;52.122;5.502;2023-05-07T00:26:14;15.10;;;10.00;;
18610;SDS011;9435;52.122;5.502;2023-05-07T00:28:42;12.13;;;8.98;;
18610;SDS011;9435;52.122;5.502;2023-05-07T00:31:09;14.60;;;10.13;;
18610;SDS011;9435;52.122;5.502;2023-05-07T00:33:37;13.60;;;9.88;;
18610;SDS011;9435;52.122;5.502;2023-05-07T00:36:04;14.77;;;9.32;;
18610;SDS011;9435;52.122;5.502;2023-05-07T00:38:33;14.88;;;9.98;;
18610;SDS011;9435;52.122;5.502;2023-05-07T00:41:00;14.63;;;9.55;;
18610;SDS011;9435;52.122;5.502;2023-05-07T00:43:28;15.02;;;9.50;;
18610;SDS011;9435;52.122;5.502;2023-05-07T00:45:55;12.50;;;8.88;;
18610;SDS011;9435;52.122;5.502;2023-05-07T00:48:22;14.02;;;9.63;;
18610;SDS011;9435;52.122;5.502;2023-05-07T00:50:51;14.48;;;10.27;;
18610;SDS011;9435;52.122;5.502;2023-05-07T00:53:18;14.52;;;10.52;;
18610;SDS011;9435;52.122;5.502;2023-05-07T00:55:47;13.15;;;9.55;;
18610;SDS011;9435;52.122;5.502;2023-05-07T00:58:14;15.35;;;10.48;;
18610;SDS011;9435;52.122;5.502;2023-05-07T01:00:41;12.00;;;9.07;;
18610;SDS011;9435;52.122;5.502;2023-05-07T01:03:08;13.95;;;9.75;;
18610;SDS011;9435;52.122;5.502;2023-05-07T01:05:36;16.00;;;10.15;;
18610;SDS011;9435;52.122;5.502;2023-05-07T01:08:03;17.42;;;10.75;;
18610;SDS011;9435;52.122;5.502;2023-05-07T01:10:31;15.65;;;10.63;;
18610;SDS011;9435;52.122;5.502;2023-05-07T01:12:59;18.33;;;10.98;;
18610;SDS011;9435;52.122;5.502;2023-05-07T01:15:27;14.75;;;10.43;;
18610;SDS011;9435;52.122;5.502;2023-05-07T01:17:54;17.35;;;11.77;;
18610;SDS011;9435;52.122;5.502;2023-05-07T01:20:22;13.90;;;10.00;;
18610;SDS011;9435;52.122;5.502;2023-05-07T01:22:51;14.98;;;10.52;;
18610;SDS011;9435;52.122;5.502;2023-05-07T01:25:19;14.82;;;9.50;;
18610;SDS011;9435;52.122;5.502;2023-05-07T01:27:46;14.52;;;9.90;;
18610;SDS011;9435;52.122;5.502;2023-05-07T01:30:13;14.93;;;10.25;;
18610;SDS011;9435;52.122;5.502;2023-05-07T01:32:42;15.65;;;9.98;;
18610;SDS011;9435;52.122;5.502;2023-05-07T01:35:13;13.90;;;9.88;;
18610;SDS011;9435;52.122;5.502;2023-05-07T01:37:44;14.82;;;9.65;;
18610;SDS011;9435;52.122;5.502;2023-05-07T01:40:13;13.95;;;10.30;;
18610;SDS011;9435;52.122;5.502;2023-05-07T01:42:41;15.20;;;10.45;;
18610;SDS011;9435;52.122;5.502;2023-05-07T01:45:10;13.63;;;10.25;;
18610;SDS011;9435;52.122;5.502;2023-05-07T01:47:37;13.27;;;9.52;;
18610;SDS011;9435;52.122;5.502;2023-05-07T01:50:05;15.43;;;10.07;;
18610;SDS011;9435;52.122;5.502;2023-05-07T01:52:35;15.50;;;10.23;;
18610;SDS011;9435;52.122;5.502;2023-05-07T01:55:04;16.08;;;10.82;;
18610;SDS011;9435;52.122;5.502;2023-05-07T01:57:33;14.35;;;9.95;;
18610;SDS011;9435;52.122;5.502;2023-05-07T02:00:00;17.45;;;9.70;;
18610;SDS011;9435;52.122;5.502;2023-05-07T02:02:31;12.90;;;9.30;;
18610;SDS011;9435;52.122;5.502;2023-05-07T02:04:58;12.32;;;9.57;;
18610;SDS011;9435;52.122;5.502;2023-05-07T02:07:26;14.40;;;9.68;;
18610;SDS011;9435;52.122;5.502;2023-05-07T02:09:53;13.73;;;8.25;;
18610;SDS011;9435;52.122;5.502;2023-05-07T02:12:20;9.68;;;7.43;;
18610;SDS011;9435;52.122;5.502;2023-05-07T02:14:49;11.45;;;7.80;;
18610;SDS011;9435;52.122;5.502;2023-05-07T02:17:16;12.20;;;8.07;;
18610;SDS011;9435;52.122;5.502;2023-05-07T02:19:43;12.95;;;9.52;;
18610;SDS011;9435;52.122;5.502;2023-05-07T02:22:10;14.38;;;10.10;;
18610;SDS011;9435;52.122;5.502;2023-05-07T02:24:37;13.95;;;10.35;;
18610;SDS011;9435;52.122;5.502;2023-05-07T02:27:04;14.20;;;10.15;;
18610;SDS011;9435;52.122;5.502;2023-05-07T02:29:31;15.02;;;9.70;;
18610;SDS011;9435;52.122;5.502;2023-05-07T02:32:00;13.95;;;9.45;;
18610;SDS011;9435;52.122;5.502;2023-05-07T02:34:27;13.18;;;10.10;;
18610;SDS011;9435;52.122;5.502;2023-05-07T02:36:54;12.90;;;9.70;;
18610;SDS011;9435;52.122;5.502;2023-05-07T02:39:21;13.32;;;9.23;;
18610;SDS011;9435;52.122;5.502;2023-05-07T02:41:48;13.73;;;10.45;;
18610;SDS011;9435;52.122;5.502;2023-05-07T02:44:15;13.80;;;10.38;;
18610;SDS011;9435;52.122;5.502;2023-05-07T02:46:42;16.73;;;10.48;;
18610;SDS011;9435;52.122;5.502;2023-05-07T02:49:10;14.77;;;10.43;;
18610;SDS011;9435;52.122;5.502;2023-05-07T02:51:37;13.27;;;9.90;;
18610;SDS011;9435;52.122;5.502;2023-05-07T02:54:04;16.20;;;11.45;;
18610;SDS011;9435;52.122;5.502;2023-05-07T02:56:31;14.77;;;10.02;;
18610;SDS011;9435;52.122;5.502;2023-05-07T02:58:58;19.85;;;12.10;;
18610;SDS011;9435;52.122;5.502;2023-05-07T03:01:25;17.55;;;12.02;;
18610;SDS011;9435;52.122;5.502;2023-05-07T03:03:52;19.48;;;12.90;;
18610;SDS011;9435;52.122;5.502;2023-05-07T03:06:21;17.70;;;12.30;;
18610;SDS011;9435;52.122;5.502;2023-05-07T03:08:48;18.80;;;11.70;;
18610;SDS011;9435;52.122;5.502;2023-05-07T03:11:15;16.27;;;11.27;;
18610;SDS011;9435;52.122;5.502;2023-05-07T03:13:42;22.15;;;13.50;;
18610;SDS011;9435;52.122;5.502;2023-05-07T03:16:09;20.90;;;13.57;;
18610;SDS011;9435;52.122;5.502;2023-05-07T03:18:36;17.77;;;12.82;;
18610;SDS011;9435;52.122;5.502;2023-05-07T03:21:03;21.33;;;12.75;;
18610;SDS011;9435;52.122;5.502;2023-05-07T03:23:32;19.42;;;12.23;;
18610;SDS011;9435;52.122;5.502;2023-05-07T03:25:59;17.23;;;11.95;;
18610;SDS011;9435;52.122;5.502;2023-05-07T03:28:26;21.35;;;14.40;;
18610;SDS011;9435;52.122;5.502;2023-05-07T03:30:53;17.58;;;12.35;;
18610;SDS011;9435;52.122;5.502;2023-05-07T03:33:20;15.88;;;12.02;;
18610;SDS011;9435;52.122;5.502;2023-05-07T03:35:47;18.90;;;12.45;;
18610;SDS011;9435;52.122;5.502;2023-05-07T03:38:14;18.13;;;12.52;;
18610;SDS011;9435;52.122;5.502;2023-05-07T03:40:42;20.15;;;13.13;;
18610;SDS011;9435;52.122;5.502;2023-05-07T03:43:09;18.70;;;12.48;;
18610;SDS011;9435;52.122;5.502;2023-05-07T03:45:36;17.95;;;11.77;;
18610;SDS011;9435;52.122;5.502;2023-05-07T03:48:04;20.80;;;13.00;;
18610;SDS011;9435;52.122;5.502;2023-05-07T03:50:31;23.85;;;13.07;;
18610;SDS011;9435;52.122;5.502;2023-05-07T03:52:58;19.08;;;12.85;;
18610;SDS011;9435;52.122;5.502;2023-05-07T03:55:25;20.80;;;14.00;;
18610;SDS011;9435;52.122;5.502;2023-05-07T03:57:53;20.42;;;13.68;;
18610;SDS011;9435;52.122;5.502;2023-05-07T04:00:21;20.38;;;13.20;;
18610;SDS011;9435;52.122;5.502;2023-05-07T04:02:48;22.98;;;14.50;;
18610;SDS011;9435;52.122;5.502;2023-05-07T04:05:15;24.75;;;14.88;;
18610;SDS011;9435;52.122;5.502;2023-05-07T04:07:42;24.50;;;15.10;;
18610;SDS011;9435;52.122;5.502;2023-05-07T04:10:09;22.55;;;14.55;;
18610;SDS011;9435;52.122;5.502;2023-05-07T04:12:38;20.30;;;13.82;;
18610;SDS011;9435;52.122;5.502;2023-05-07T04:15:07;22.02;;;14.50;;
18610;SDS011;9435;52.122;5.502;2023-05-07T04:17:34;22.05;;;15.05;;
18610;SDS011;9435;52.122;5.502;2023-05-07T04:20:02;22.73;;;15.82;;
18610;SDS011;9435;52.122;5.502;2023-05-07T04:22:29;26.77;;;16.88;;
18610;SDS011;9435;52.122;5.502;2023-05-07T04:24:56;22.42;;;16.33;;
18610;SDS011;9435;52.122;5.502;2023-05-07T04:27:23;26.50;;;17.65;;
18610;SDS011;9435;52.122;5.502;2023-05-07T04:29:51;24.13;;;16.88;;
18610;SDS011;9435;52.122;5.502;2023-05-07T04:32:22;25.30;;;16.95;;
18610;SDS011;9435;52.122;5.502;2023-05-07T04:34:50;27.73;;;18.65;;
18610;SDS011;9435;52.122;5.502;2023-05-07T04:37:17;32.95;;;18.45;;
18610;SDS011;9435;52.122;5.502;2023-05-07T04:39:44;34.65;;;19.23;;
18610;SDS011;9435;52.122;5.502;2023-05-07T04:42:14;32.33;;;18.95;;
18610;SDS011;9435;52.122;5.502;2023-05-07T04:44:41;33.35;;;18.70;;
18610;SDS011;9435;52.122;5.502;2023-05-07T04:47:08;30.23;;;18.25;;
18610;SDS011;9435;52.122;5.502;2023-05-07T04:49:36;31.48;;;18.88;;
18610;SDS011;9435;52.122;5.502;2023-05-07T04:52:04;31.17;;;19.30;;
18610;SDS011;9435;52.122;5.502;2023-05-07T04:54:31;30.90;;;19.10;;
18610;SDS011;9435;52.122;5.502;2023-05-07T04:56:58;32.15;;;18.90;;
18610;SDS011;9435;52.122;5.502;2023-05-07T04:59:25;31.17;;;19.52;;
18610;SDS011;9435;52.122;5.502;2023-05-07T05:01:52;27.45;;;18.08;;
18610;SDS011;9435;52.122;5.502;2023-05-07T05:04:19;33.55;;;19.63;;
18610;SDS011;9435;52.122;5.502;2023-05-07T05:06:47;30.27;;;19.90;;
18610;SDS011;9435;52.122;5.502;2023-05-07T05:09:14;30.77;;;19.95;;
18610;SDS011;9435;52.122;5.502;2023-05-07T05:11:42;30.63;;;20.17;;
18610;SDS011;9435;52.122;5.502;2023-05-07T05:14:09;33.45;;;20.77;;
18610;SDS011;9435;52.122;5.502;2023-05-07T05:16:36;31.40;;;20.92;;
18610;SDS011;9435;52.122;5.502;2023-05-07T05:19:03;36.35;;;21.15;;
18610;SDS011;9435;52.122;5.502;2023-05-07T05:21:30;33.60;;;21.85;;
18610;SDS011;9435;52.122;5.502;2023-05-07T05:23:59;32.10;;;20.55;;
18610;SDS011;9435;52.122;5.502;2023-05-07T05:26:26;35.92;;;22.58;;
18610;SDS011;9435;52.122;5.502;2023-05-07T05:28:53;35.15;;;21.42;;
18610;SDS011;9435;52.122;5.502;2023-05-07T05:31:20;34.05;;;22.02;;
18610;SDS011;9435;52.122;5.502;2023-05-07T05:33:47;33.97;;;22.98;;
18610;SDS011;9435;52.122;5.502;2023-05-07T05:36:14;33.63;;;22.20;;
18610;SDS011;9435;52.122;5.502;2023-05-07T05:38:41;38.05;;;22.83;;
18610;SDS011;9435;52.122;5.502;2023-05-07T05:41:10;35.70;;;23.58;;
18610;SDS011;9435;52.122;5.502;2023-05-07T05:43:37;42.50;;;23.70;;
18610;SDS011;9435;52.122;5.502;2023-05-07T05:46:04;37.58;;;23.70;;
18610;SDS011;9435;52.122;5.502;2023-05-07T05:48:33;35.35;;;23.67;;
18610;SDS011;9435;52.122;5.502;2023-05-07T05:51:00;36.75;;;23.13;;
18610;SDS011;9435;52.122;5.502;2023-05-07T05:53:27;34.47;;;23.13;;
18610;SDS011;9435;52.122;5.502;2023-05-07T05:55:54;37.72;;;23.67;;
18610;SDS011;9435;52.122;5.502;2023-05-07T05:58:22;35.40;;;23.98;;
18610;SDS011;9435;52.122;5.502;2023-05-07T06:00:49;34.67;;;23.63;;
18610;SDS011;9435;52.122;5.502;2023-05-07T06:03:18;37.30;;;23.52;;
18610;SDS011;9435;52.122;5.502;2023-05-07T06:05:45;35.88;;;22.92;;
18610;SDS011;9435;52.122;5.502;2023-05-07T06:08:12;34.72;;;23.35;;
18610;SDS011;9435;52.122;5.502;2023-05-07T06:10:39;35.55;;;21.73;;
18610;SDS011;9435;52.122;5.502;2023-05-07T06:13:07;34.13;;;22.65;;
18610;SDS011;9435;52.122;5.502;2023-05-07T06:15:35;36.00;;;22.10;;
18610;SDS011;9435;52.122;5.502;2023-05-07T06:18:02;34.15;;;22.33;;
18610;SDS011;9435;52.122;5.502;2023-05-07T06:20:29;33.95;;;22.15;;
18610;SDS011;9435;52.122;5.502;2023-05-07T06:22:56;33.28;;;22.23;;
18610;SDS011;9435;52.122;5.502;2023-05-07T06:25:23;34.28;;;22.17;;
18610;SDS011;9435;52.122;5.502;2023-05-07T06:27:50;31.73;;;21.40;;
18610;SDS011;9435;52.122;5.502;2023-05-07T06:30:18;33.83;;;21.83;;
18610;SDS011;9435;52.122;5.502;2023-05-07T06:32:46;35.60;;;22.52;;
18610;SDS011;9435;52.122;5.502;2023-05-07T06:35:13;32.75;;;21.77;;
18610;SDS011;9435;52.122;5.502;2023-05-07T06:37:41;34.85;;;21.65;;
18610;SDS011;9435;52.122;5.502;2023-05-07T06:40:09;31.67;;;21.30;;
18610;SDS011;9435;52.122;5.502;2023-05-07T06:42:36;30.95;;;20.80;;
18610;SDS011;9435;52.122;5.502;2023-05-07T06:45:04;33.00;;;22.33;;
18610;SDS011;9435;52.122;5.502;2023-05-07T06:47:32;40.22;;;22.17;;
18610;SDS011;9435;52.122;5.502;2023-05-07T06:50:00;29.95;;;20.38;;
18610;SDS011;9435;52.122;5.502;2023-05-07T06:52:27;30.33;;;20.60;;
18610;SDS011;9435;52.122;5.502;2023-05-07T06:54:54;31.35;;;21.65;;
18610;SDS011;9435;52.122;5.502;2023-05-07T06:57:21;31.80;;;21.38;;
18610;SDS011;9435;52.122;5.502;2023-05-07T06:59:48;28.23;;;20.13;;
18610;SDS011;9435;52.122;5.502;2023-05-07T07:02:15;36.03;;;22.13;;
18610;SDS011;9435;52.122;5.502;2023-05-07T07:04:42;30.80;;;21.02;;
18610;SDS011;9435;52.122;5.502;2023-05-07T07:07:11;30.30;;;20.88;;
18610;SDS011;9435;52.122;5.502;2023-05-07T07:09:38;34.75;;;22.50;;
18610;SDS011;9435;52.122;5.502;2023-05-07T07:12:05;34.28;;;22.50;;
18610;SDS011;9435;52.122;5.502;2023-05-07T07:14:32;31.48;;;21.95;;
18610;SDS011;9435;52.122;5.502;2023-05-07T07:16:59;33.30;;;22.42;;
18610;SDS011;9435;52.122;5.502;2023-05-07T07:19:26;34.65;;;22.92;;
18610;SDS011;9435;52.122;5.502;2023-05-07T07:21:54;32.85;;;22.27;;
18610;SDS011;9435;52.122;5.502;2023-05-07T07:24:22;34.03;;;21.80;;
18610;SDS011;9435;52.122;5.502;2023-05-07T07:26:49;35.13;;;23.50;;
18610;SDS011;9435;52.122;5.502;2023-05-07T07:29:16;35.13;;;23.42;;
18610;SDS011;9435;52.122;5.502;2023-05-07T07:31:43;37.67;;;23.00;;
18610;SDS011;9435;52.122;5.502;2023-05-07T07:34:10;33.75;;;22.77;;
18610;SDS011;9435;52.122;5.502;2023-05-07T07:36:37;33.33;;;22.80;;
18610;SDS011;9435;52.122;5.502;2023-05-07T07:39:04;35.15;;;23.67;;
18610;SDS011;9435;52.122;5.502;2023-05-07T07:41:33;34.92;;;22.67;;
18610;SDS011;9435;52.122;5.502;2023-05-07T07:44:00;32.50;;;21.52;;
18610;SDS011;9435;52.122;5.502;2023-05-07T07:46:28;32.95;;;22.52;;
18610;SDS011;9435;52.122;5.502;2023-05-07T07:48:55;33.58;;;22.17;;
18610;SDS011;9435;52.122;5.502;2023-05-07T07:51:24;34.13;;;23.65;;
18610;SDS011;9435;52.122;5.502;2023-05-07T07:53:51;31.75;;;21.70;;
18610;SDS011;9435;52.122;5.502;2023-05-07T07:56:18;34.47;;;23.27;;
18610;SDS011;9435;52.122;5.502;2023-05-07T07:58:47;33.83;;;23.45;;
18610;SDS011;9435;52.122;5.502;2023-05-07T08:01:14;35.13;;;24.00;;
18610;SDS011;9435;52.122;5.502;2023-05-07T08:03:42;33.03;;;23.48;;
18610;SDS011;9435;52.122;5.502;2023-05-07T08:06:09;33.85;;;22.77;;
18610;SDS011;9435;52.122;5.502;2023-05-07T08:08:36;34.30;;;23.73;;
18610;SDS011;9435;52.122;5.502;2023-05-07T08:11:03;31.38;;;22.08;;
18610;SDS011;9435;52.122;5.502;2023-05-07T08:13:30;34.70;;;22.42;;
18610;SDS011;9435;52.122;5.502;2023-05-07T08:15:59;33.95;;;22.90;;
18610;SDS011;9435;52.122;5.502;2023-05-07T08:18:26;31.95;;;21.95;;
18610;SDS011;9435;52.122;5.502;2023-05-07T08:20:54;32.80;;;22.95;;
18610;SDS011;9435;52.122;5.502;2023-05-07T08:23:21;31.15;;;22.15;;
18610;SDS011;9435;52.122;5.502;2023-05-07T08:25:51;31.13;;;22.05;;
18610;SDS011;9435;52.122;5.502;2023-05-07T08:28:18;30.38;;;21.60;;
18610;SDS011;9435;52.122;5.502;2023-05-07T08:30:46;30.13;;;21.85;;
18610;SDS011;9435;52.122;5.502;2023-05-07T08:33:15;29.55;;;21.02;;
18610;SDS011;9435;52.122;5.502;2023-05-07T08:35:42;30.45;;;21.17;;
18610;SDS011;9435;52.122;5.502;2023-05-07T08:38:09;31.77;;;21.77;;
18610;SDS011;9435;52.122;5.502;2023-05-07T08:40:37;35.15;;;22.60;;
18610;SDS011;9435;52.122;5.502;2023-05-07T08:43:06;33.55;;;22.55;;
18610;SDS011;9435;52.122;5.502;2023-05-07T08:45:33;33.25;;;23.13;;
18610;SDS011;9435;52.122;5.502;2023-05-07T08:48:02;32.72;;;23.05;;
18610;SDS011;9435;52.122;5.502;2023-05-07T08:50:32;34.22;;;24.20;;
18610;SDS011;9435;52.122;5.502;2023-05-07T08:53:02;33.03;;;23.05;;
18610;SDS011;9435;52.122;5.502;2023-05-07T08:55:30;36.25;;;23.73;;
18610;SDS011;9435;52.122;5.502;2023-05-07T08:57:58;38.75;;;25.10;;
18610;SDS011;9435;52.122;5.502;2023-05-07T09:00:26;37.30;;;25.13;;
18610;SDS011;9435;52.122;5.502;2023-05-07T09:02:53;37.28;;;25.17;;
18610;SDS011;9435;52.122;5.502;2023-05-07T09:05:20;45.55;;;26.73;;
18610;SDS011;9435;52.122;5.502;2023-05-07T09:07:48;38.90;;;26.65;;
18610;SDS011;9435;52.122;5.502;2023-05-07T09:10:16;38.97;;;26.65;;
18610;SDS011;9435;52.122;5.502;2023-05-07T09:12:43;41.35;;;26.67;;
18610;SDS011;9435;52.122;5.502;2023-05-07T09:15:13;42.08;;;28.13;;
18610;SDS011;9435;52.122;5.502;2023-05-07T09:17:40;42.90;;;26.55;;
18610;SDS011;9435;52.122;5.502;2023-05-07T09:20:07;42.67;;;28.17;;
18610;SDS011;9435;52.122;5.502;2023-05-07T09:22:36;41.47;;;27.98;;
18610;SDS011;9435;52.122;5.502;2023-05-07T09:25:05;43.25;;;28.10;;
18610;SDS011;9435;52.122;5.502;2023-05-07T09:27:33;45.58;;;28.83;;
18610;SDS011;9435;52.122;5.502;2023-05-07T09:30:02;45.35;;;29.48;;
18610;SDS011;9435;52.122;5.502;2023-05-07T09:32:34;43.00;;;28.08;;
18610;SDS011;9435;52.122;5.502;2023-05-07T09:35:03;45.35;;;29.20;;
18610;SDS011;9435;52.122;5.502;2023-05-07T09:37:31;43.38;;;27.80;;
18610;SDS011;9435;52.122;5.502;2023-05-07T09:39:58;41.85;;;28.02;;
18610;SDS011;9435;52.122;5.502;2023-05-07T09:42:26;42.25;;;27.60;;
18610;SDS011;9435;52.122;5.502;2023-05-07T09:44:54;40.28;;;26.35;;
18610;SDS011;9435;52.122;5.502;2023-05-07T09:47:23;39.50;;;25.75;;
18610;SDS011;9435;52.122;5.502;2023-05-07T09:49:50;40.03;;;26.45;;
18610;SDS011;9435;52.122;5.502;2023-05-07T09:52:23;39.40;;;26.15;;
18610;SDS011;9435;52.122;5.502;2023-05-07T09:54:53;38.80;;;25.30;;
18610;SDS011;9435;52.122;5.502;2023-05-07T09:57:24;42.85;;;24.90;;
18610;SDS011;9435;52.122;5.502;2023-05-07T09:59:55;38.05;;;23.20;;
18610;SDS011;9435;52.122;5.502;2023-05-07T10:02:24;36.30;;;22.70;;
18610;SDS011;9435;52.122;5.502;2023-05-07T10:04:54;35.05;;;22.42;;
18610;SDS011;9435;52.122;5.502;2023-05-07T10:07:22;33.88;;;22.25;;
18610;SDS011;9435;52.122;5.502;2023-05-07T10:09:50;34.70;;;22.52;;
18610;SDS011;9435;52.122;5.502;2023-05-07T10:12:17;34.05;;;22.67;;
18610;SDS011;9435;52.122;5.502;2023-05-07T10:14:47;34.50;;;21.85;;
18610;SDS011;9435;52.122;5.502;2023-05-07T10:17:15;31.35;;;21.35;;
18610;SDS011;9435;52.122;5.502;2023-05-07T10:19:44;35.03;;;22.55;;
18610;SDS011;9435;52.122;5.502;2023-05-07T10:22:11;33.08;;;22.13;;
18610;SDS011;9435;52.122;5.502;2023-05-07T10:24:41;34.17;;;21.90;;
18610;SDS011;9435;52.122;5.502;2023-05-07T10:27:11;35.03;;;22.48;;
18610;SDS011;9435;52.122;5.502;2023-05-07T10:29:42;34.97;;;22.23;;
18610;SDS011;9435;52.122;5.502;2023-05-07T10:32:25;36.28;;;22.95;;
18610;SDS011;9435;52.122;5.502;2023-05-07T10:35:04;37.83;;;22.98;;
18610;SDS011;9435;52.122;5.502;2023-05-07T10:37:38;34.17;;;22.25;;
18610;SDS011;9435;52.122;5.502;2023-05-07T10:40:07;38.35;;;23.85;;
18610;SDS011;9435;52.122;5.502;2023-05-07T10:42:36;37.83;;;23.23;;
18610;SDS011;9435;52.122;5.502;2023-05-07T10:45:13;35.85;;;22.83;;
18610;SDS011;9435;52.122;5.502;2023-05-07T10:50:33;36.05;;;22.15;;
18610;SDS011;9435;52.122;5.502;2023-05-07T10:55:51;36.97;;;23.40;;
18610;SDS011;9435;52.122;5.502;2023-05-07T10:58:55;38.85;;;23.85;;
18610;SDS011;9435;52.122;5.502;2023-05-07T11:01:50;37.10;;;23.05;;
18610;SDS011;9435;52.122;5.502;2023-05-07T11:04:19;34.90;;;22.60;;
18610;SDS011;9435;52.122;5.502;2023-05-07T11:10:05;33.08;;;21.88;;
18610;SDS011;9435;52.122;5.502;2023-05-07T11:12:53;38.83;;;23.48;;
18610;SDS011;9435;52.122;5.502;2023-05-07T11:15:37;35.55;;;23.13;;
18610;SDS011;9435;52.122;5.502;2023-05-07T11:18:07;33.35;;;22.50;;
18610;SDS011;9435;52.122;5.502;2023-05-07T11:20:53;36.40;;;24.10;;
18610;SDS011;9435;52.122;5.502;2023-05-07T11:26:26;36.10;;;24.10;;
18610;SDS011;9435;52.122;5.502;2023-05-07T11:28:57;35.53;;;23.33;;
18610;SDS011;9435;52.122;5.502;2023-05-07T11:31:26;31.88;;;22.92;;
18610;SDS011;9435;52.122;5.502;2023-05-07T11:33:57;39.08;;;24.98;;
18610;SDS011;9435;52.122;5.502;2023-05-07T11:36:24;34.10;;;22.48;;
18610;SDS011;9435;52.122;5.502;2023-05-07T11:38:52;37.60;;;23.33;;
18610;SDS011;9435;52.122;5.502;2023-05-07T11:41:19;34.42;;;22.67;;
18610;SDS011;9435;52.122;5.502;2023-05-07T11:43:58;35.05;;;23.10;;
18610;SDS011;9435;52.122;5.502;2023-05-07T11:46:26;33.63;;;22.58;;
18610;SDS011;9435;52.122;5.502;2023-05-07T11:48:54;35.72;;;22.42;;
18610;SDS011;9435;52.122;5.502;2023-05-07T11:51:22;31.77;;;22.10;;
18610;SDS011;9435;52.122;5.502;2023-05-07T11:53:51;32.95;;;21.88;;
18610;SDS011;9435;52.122;5.502;2023-05-07T11:56:18;29.30;;;20.88;;
18610;SDS011;9435;52.122;5.502;2023-05-07T11:58:48;27.83;;;20.13;;
18610;SDS011;9435;52.122;5.502;2023-05-07T12:01:18;30.08;;;20.10;;
18610;SDS011;9435;52.122;5.502;2023-05-07T12:03:45;29.80;;;20.15;;
18610;SDS011;9435;52.122;5.502;2023-05-07T12:06:13;32.35;;;20.67;;
18610;SDS011;9435;52.122;5.502;2023-05-07T12:08:42;29.50;;;19.83;;
18610;SDS011;9435;52.122;5.502;2023-05-07T12:11:14;29.27;;;18.90;;
18610;SDS011;9435;52.122;5.502;2023-05-07T12:13:43;29.55;;;19.40;;
18610;SDS011;9435;52.122;5.502;2023-05-07T12:16:10;32.15;;;19.90;;
18610;SDS011;9435;52.122;5.502;2023-05-07T12:18:41;27.50;;;19.75;;
18610;SDS011;9435;52.122;5.502;2023-05-07T12:21:08;31.00;;;20.33;;
18610;SDS011;9435;52.122;5.502;2023-05-07T12:23:36;31.77;;;20.20;;
18610;SDS011;9435;52.122;5.502;2023-05-07T12:26:04;28.38;;;17.85;;
18610;SDS011;9435;52.122;5.502;2023-05-07T12:28:35;26.67;;;18.25;;
18610;SDS011;9435;52.122;5.502;2023-05-07T12:31:04;25.75;;;17.83;;
18610;SDS011;9435;52.122;5.502;2023-05-07T12:33:31;27.42;;;18.38;;
18610;SDS011;9435;52.122;5.502;2023-05-07T12:36:02;33.53;;;19.90;;
18610;SDS011;9435;52.122;5.502;2023-05-07T12:38:35;32.60;;;21.00;;
18610;SDS011;9435;52.122;5.502;2023-05-07T12:41:03;30.80;;;20.05;;
18610;SDS011;9435;52.122;5.502;2023-05-07T12:43:32;28.52;;;19.67;;
18610;SDS011;9435;52.122;5.502;2023-05-07T12:46:00;28.80;;;19.10;;
18610;SDS011;9435;52.122;5.502;2023-05-07T12:48:27;23.90;;;17.05;;
18610;SDS011;9435;52.122;5.502;2023-05-07T12:50:55;23.02;;;16.30;;
18610;SDS011;9435;52.122;5.502;2023-05-07T12:53:24;22.38;;;15.60;;
18610;SDS011;9435;52.122;5.502;2023-05-07T12:55:54;27.13;;;17.17;;
18610;SDS011;9435;52.122;5.502;2023-05-07T12:58:24;25.55;;;17.80;;
18610;SDS011;9435;52.122;5.502;2023-05-07T13:00:52;25.70;;;17.10;;
18610;SDS011;9435;52.122;5.502;2023-05-07T13:03:24;24.30;;;17.20;;
18610;SDS011;9435;52.122;5.502;2023-05-07T13:05:54;25.80;;;17.63;;
18610;SDS011;9435;52.122;5.502;2023-05-07T13:08:26;28.05;;;18.35;;
18610;SDS011;9435;52.122;5.502;2023-05-07T13:10:55;23.58;;;15.95;;
18610;SDS011;9435;52.122;5.502;2023-05-07T13:13:22;22.77;;;15.43;;
18610;SDS011;9435;52.122;5.502;2023-05-07T13:15:50;23.58;;;15.52;;
18610;SDS011;9435;52.122;5.502;2023-05-07T13:18:17;27.65;;;18.55;;
18610;SDS011;9435;52.122;5.502;2023-05-07T13:20:44;28.40;;;19.25;;
18610;SDS011;9435;52.122;5.502;2023-05-07T13:23:14;32.63;;;20.10;;
18610;SDS011;9435;52.122;5.502;2023-05-07T13:25:43;29.55;;;19.13;;
18610;SDS011;9435;52.122;5.502;2023-05-07T13:28:10;28.35;;;20.25;;
18610;SDS011;9435;52.122;5.502;2023-05-07T13:30:37;28.52;;;19.63;;
18610;SDS011;9435;52.122;5.502;2023-05-07T13:33:05;29.77;;;20.58;;
18610;SDS011;9435;52.122;5.502;2023-05-07T13:35:33;28.98;;;19.52;;
18610;SDS011;9435;52.122;5.502;2023-05-07T13:38:00;34.42;;;19.90;;
18610;SDS011;9435;52.122;5.502;2023-05-07T13:40:27;27.10;;;18.83;;
18610;SDS011;9435;52.122;5.502;2023-05-07T13:42:56;31.83;;;20.60;;
18610;SDS011;9435;52.122;5.502;2023-05-07T13:45:24;26.40;;;18.85;;
18610;SDS011;9435;52.122;5.502;2023-05-07T13:47:51;28.27;;;18.25;;
18610;SDS011;9435;52.122;5.502;2023-05-07T13:50:18;27.45;;;19.08;;
18610;SDS011;9435;52.122;5.502;2023-05-07T13:52:46;29.70;;;18.50;;
18610;SDS011;9435;52.122;5.502;2023-05-07T13:55:15;34.97;;;20.30;;
18610;SDS011;9435;52.122;5.502;2023-05-07T13:57:43;28.95;;;18.70;;
18610;SDS011;9435;52.122;5.502;2023-05-07T14:00:12;28.33;;;18.35;;
18610;SDS011;9435;52.122;5.502;2023-05-07T14:02:41;28.33;;;17.95;;
18610;SDS011;9435;52.122;5.502;2023-05-07T14:05:08;27.58;;;17.80;;
18610;SDS011;9435;52.122;5.502;2023-05-07T14:07:35;29.02;;;18.52;;
18610;SDS011;9435;52.122;5.502;2023-05-07T14:10:03;23.40;;;16.75;;
18610;SDS011;9435;52.122;5.502;2023-05-07T14:12:31;24.08;;;16.33;;
18610;SDS011;9435;52.122;5.502;2023-05-07T14:14:58;21.27;;;14.88;;
18610;SDS011;9435;52.122;5.502;2023-05-07T14:17:27;24.90;;;15.45;;
18610;SDS011;9435;52.122;5.502;2023-05-07T14:19:54;22.48;;;15.60;;
18610;SDS011;9435;52.122;5.502;2023-05-07T14:22:21;23.73;;;15.23;;
18610;SDS011;9435;52.122;5.502;2023-05-07T14:24:49;21.23;;;15.43;;
18610;SDS011;9435;52.122;5.502;2023-05-07T14:27:16;20.52;;;14.60;;
18610;SDS011;9435;52.122;5.502;2023-05-07T14:29:44;18.45;;;13.90;;
18610;SDS011;9435;52.122;5.502;2023-05-07T14:32:15;21.67;;;14.68;;
18610;SDS011;9435;52.122;5.502;2023-05-07T14:34:44;21.77;;;14.80;;
18610;SDS011;9435;52.122;5.502;2023-05-07T14:37:12;21.20;;;14.68;;
18610;SDS011;9435;52.122;5.502;2023-05-07T14:39:39;21.75;;;15.48;;
18610;SDS011;9435;52.122;5.502;2023-05-07T14:42:06;26.58;;;15.75;;
18610;SDS011;9435;52.122;5.502;2023-05-07T14:44:34;21.60;;;15.05;;
18610;SDS011;9435;52.122;5.502;2023-05-07T14:47:01;23.15;;;15.32;;
18610;SDS011;9435;52.122;5.502;2023-05-07T14:49:28;23.20;;;14.40;;
18610;SDS011;9435;52.122;5.502;2023-05-07T14:51:58;21.88;;;14.95;;
18610;SDS011;9435;52.122;5.502;2023-05-07T14:54:25;24.48;;;16.10;;